createdAt,value
2022-08-07T00:01:44.218Z,20.23
2022-08-07T00:04:09.494Z,20.24
2022-08-07T00:06:41.026Z,20.27
2022-08-07T00:09:22.383Z,20.15
2022-08-07T00:11:55.324Z,19.95
2022-08-07T00:14:25.445Z,20.09
2022-08-07T00:17:01.867Z,19.98
2022-08-07T00:19:59.892Z,19.85
2022-08-07T00:22:24.514Z,19.94
2022-08-07T00:25:02.751Z,19.82
2022-08-07T00:27:51.918Z,19.68
2022-08-07T00:30:27.485Z,19.84
2022-08-07T00:32:59.994Z,19.57
2022-08-07T00:35:29.602Z,19.74
2022-08-07T00:38:00.193Z,19.53
2022-08-07T00:40:39.394Z,19.66
2022-08-07T00:43:09.758Z,19.62
2022-08-07T00:45:38.741Z,19.61
2022-08-07T00:48:09.129Z,19.57
2022-08-07T00:50:46.142Z,19.56
2022-08-07T00:53:17.851Z,19.46
2022-08-07T00:56:03.131Z,19.39
2022-08-07T00:58:32.616Z,19.44
2022-08-07T01:00:59.622Z,19.42
2022-08-07T01:03:54.891Z,19.31
2022-08-07T01:06:16.756Z,19.17
2022-08-07T01:08:53.372Z,19.18
2022-08-07T01:12:09.779Z,18.92
2022-08-07T01:14:08.796Z,18.96
2022-08-07T01:16:36.935Z,18.97
2022-08-07T01:19:10.859Z,19.06
2022-08-07T01:21:48.226Z,19.00
2022-08-07T01:24:21.144Z,18.93
2022-08-07T01:26:52.161Z,18.81
2022-08-07T01:29:21.984Z,18.83
2022-08-07T01:31:49.792Z,18.72
2022-08-07T01:34:18.673Z,18.82
2022-08-07T01:36:52.744Z,18.87
2022-08-07T01:39:41.201Z,18.67
2022-08-07T01:42:38.917Z,18.91
2022-08-07T01:45:03.301Z,18.73
2022-08-07T01:48:21.369Z,18.64
2022-08-07T01:50:16.938Z,18.74
2022-08-07T01:53:00.933Z,18.70
2022-08-07T01:55:34.364Z,18.67
2022-08-07T01:58:28.856Z,18.54
2022-08-07T02:01:09.892Z,18.55
2022-08-07T02:03:56.599Z,18.41
2022-08-07T02:06:32.027Z,18.36
2022-08-07T02:09:03.518Z,18.35
2022-08-07T02:12:03.038Z,18.31
2022-08-07T02:14:40.411Z,18.07
2022-08-07T02:17:10.991Z,18.09
2022-08-07T02:20:07.617Z,17.91
2022-08-07T02:22:29.584Z,18.02
2022-08-07T02:24:58.867Z,18.04
2022-08-07T02:27:34.284Z,18.03
2022-08-07T02:30:07.216Z,18.15
2022-08-07T02:32:39.436Z,17.94
2022-08-07T02:35:11.409Z,18.25
2022-08-07T02:37:48.367Z,18.24
2022-08-07T02:40:30.987Z,18.20
2022-08-07T02:43:07.986Z,18.23
2022-08-07T02:45:59.117Z,18.09
2022-08-07T02:48:28.330Z,18.11
2022-08-07T02:50:58.918Z,18.11
2022-08-07T02:53:39.145Z,17.98
2022-08-07T02:56:20.979Z,18.05
2022-08-07T02:58:51.451Z,18.06
2022-08-07T03:01:36.667Z,18.06
2022-08-07T03:04:12.972Z,18.11
2022-08-07T03:06:48.351Z,18.11
2022-08-07T03:09:43.329Z,17.94
2022-08-07T03:12:08.092Z,18.11
2022-08-07T03:14:48.604Z,17.86
2022-08-07T03:17:19.146Z,17.87
2022-08-07T03:19:55.251Z,17.87
2022-08-07T03:22:24.142Z,17.92
2022-08-07T03:25:00.403Z,17.81
2022-08-07T03:27:30.286Z,17.59
2022-08-07T03:29:58.951Z,17.49
2022-08-07T03:32:36.109Z,17.73
2022-08-07T03:35:17.548Z,17.58
2022-08-07T03:37:54.028Z,17.61
2022-08-07T03:40:23.566Z,17.55
2022-08-07T03:42:55.751Z,17.41
2022-08-07T03:45:30.711Z,17.51
2022-08-07T03:47:58.802Z,17.31
2022-08-07T03:50:28.576Z,17.39
2022-08-07T03:52:58.717Z,17.32
2022-08-07T03:55:57.312Z,17.38
2022-08-07T03:59:06.700Z,17.31
2022-08-07T04:01:01.074Z,17.26
2022-08-07T04:03:28.098Z,17.13
2022-08-07T04:06:38.473Z,16.93
2022-08-07T04:09:03.007Z,16.98
2022-08-07T04:12:26.571Z,16.95
2022-08-07T04:14:37.631Z,16.92
2022-08-07T04:17:05.198Z,16.71
2022-08-07T04:19:51.198Z,16.75
2022-08-07T04:22:19.527Z,16.78
2022-08-07T04:24:50.633Z,16.79
2022-08-07T04:27:25.398Z,16.65
2022-08-07T04:30:01.650Z,16.62
2022-08-07T04:32:34.428Z,16.68
2022-08-07T04:35:07.332Z,16.80
2022-08-07T04:38:01.228Z,16.68
2022-08-07T04:40:30.008Z,16.69
2022-08-07T04:43:02.070Z,16.72
2022-08-07T04:45:57.894Z,16.72
2022-08-07T04:49:14.852Z,16.66
2022-08-07T04:51:50.766Z,16.65
2022-08-07T04:54:40.414Z,16.64
2022-08-07T04:58:11.157Z,16.66
2022-08-07T05:00:14.637Z,16.55
2022-08-07T05:02:57.094Z,16.54
2022-08-07T05:05:53.255Z,16.48
2022-08-07T05:09:01.458Z,16.54
2022-08-07T05:11:58.590Z,16.45
2022-08-07T05:14:55.986Z,16.51
2022-08-07T05:18:00.599Z,16.53
2022-08-07T05:20:10.011Z,16.65
2022-08-07T05:22:41.234Z,16.66
2022-08-07T05:25:11.862Z,16.75
2022-08-07T05:28:15.968Z,16.78
2022-08-07T05:30:47.648Z,16.73
2022-08-07T05:33:15.707Z,16.76
2022-08-07T05:35:46.014Z,16.82
2022-08-07T05:38:58.326Z,16.73
2022-08-07T05:41:12.004Z,16.71
2022-08-07T05:44:07.537Z,16.78
2022-08-07T05:46:31.027Z,16.83
2022-08-07T05:48:59.510Z,16.90
2022-08-07T05:51:31.573Z,16.98
2022-08-07T05:54:12.098Z,17.04
2022-08-07T05:56:51.287Z,17.10
2022-08-07T05:59:21.052Z,17.16
2022-08-07T06:01:49.903Z,17.24
2022-08-07T06:04:19.813Z,17.31
2022-08-07T06:06:56.396Z,17.42
2022-08-07T06:10:04.348Z,17.42
2022-08-07T06:12:12.491Z,17.54
2022-08-07T06:14:43.197Z,17.65
2022-08-07T06:17:19.321Z,17.65
2022-08-07T06:20:03.459Z,17.70
2022-08-07T06:22:36.886Z,17.94
2022-08-07T06:25:10.286Z,18.15
2022-08-07T06:28:00.623Z,18.23
2022-08-07T06:30:31.800Z,18.03
2022-08-07T06:33:05.239Z,17.96
2022-08-07T06:35:45.525Z,18.15
2022-08-07T06:38:19.216Z,18.47
2022-08-07T06:40:50.354Z,18.74
2022-08-07T06:43:20.975Z,18.90
2022-08-07T06:45:48.976Z,19.03
2022-08-07T06:48:15.864Z,19.19
2022-08-07T06:50:53.111Z,19.40
2022-08-07T06:55:29.814Z,19.36
2022-08-07T06:56:15.517Z,19.52
2022-08-07T07:00:14.348Z,19.73
2022-08-07T07:01:43.651Z,19.94
2022-08-07T07:04:32.063Z,20.14
2022-08-07T07:07:01.314Z,20.46
2022-08-07T07:09:31.856Z,20.87
2022-08-07T07:12:19.718Z,21.00
2022-08-07T07:15:23.635Z,21.31
2022-08-07T07:18:09.385Z,21.53
2022-08-07T07:20:42.141Z,21.83
2022-08-07T07:24:08.259Z,22.17
2022-08-07T07:26:31.455Z,22.57
2022-08-07T07:29:39.320Z,22.77
2022-08-07T07:31:49.366Z,23.11
2022-08-07T07:34:30.533Z,23.44
2022-08-07T07:37:14.434Z,23.65
2022-08-07T07:39:54.893Z,23.91
2022-08-07T07:42:34.820Z,23.91
2022-08-07T07:45:04.470Z,24.31
2022-08-07T07:47:42.636Z,24.28
2022-08-07T07:50:35.564Z,24.51
2022-08-07T07:53:20.462Z,24.78
2022-08-07T07:55:54.754Z,25.10
2022-08-07T07:58:27.912Z,25.10
2022-08-07T08:00:58.722Z,25.08
2022-08-07T08:04:09.856Z,25.38
2022-08-07T08:06:19.340Z,25.43
2022-08-07T08:08:49.349Z,25.72
2022-08-07T08:11:18.191Z,26.07
2022-08-07T08:14:04.448Z,26.37
2022-08-07T08:16:38.546Z,26.56
2022-08-07T08:20:15.930Z,26.60
2022-08-07T08:22:21.421Z,26.85
2022-08-07T08:25:41.737Z,27.15
2022-08-07T08:28:12.461Z,27.50
2022-08-07T08:30:51.359Z,26.71
2022-08-07T08:33:28.742Z,26.85
2022-08-07T08:36:01.733Z,27.30
2022-08-07T08:38:38.626Z,27.61
2022-08-07T08:41:57.063Z,27.79
2022-08-07T08:44:44.311Z,28.22
2022-08-07T08:47:52.758Z,28.41
2022-08-07T08:50:39.091Z,28.65
2022-08-07T08:53:44.105Z,28.92
2022-08-07T08:56:17.345Z,29.24
2022-08-07T08:59:12.779Z,27.86
2022-08-07T09:02:11.069Z,28.65
2022-08-07T09:04:49.639Z,29.30
2022-08-07T09:07:46.481Z,29.95
2022-08-07T09:10:33.885Z,30.07
2022-08-07T09:13:09.438Z,30.44
2022-08-07T09:16:29.595Z,30.51
2022-08-07T09:19:50.865Z,30.92
2022-08-07T09:24:29.139Z,31.35
2022-08-07T09:25:18.007Z,30.97
2022-08-07T09:28:02.991Z,31.37
2022-08-07T09:30:54.752Z,31.19
2022-08-07T09:33:58.238Z,31.45
2022-08-07T09:36:35.698Z,32.09
2022-08-07T09:39:52.504Z,32.61
2022-08-07T09:42:10.176Z,33.00
2022-08-07T09:47:20.202Z,33.74
2022-08-07T09:48:50.184Z,33.74
2022-08-07T09:52:10.755Z,32.07
2022-08-07T09:54:18.024Z,29.81
2022-08-07T09:56:57.337Z,31.10
2022-08-07T09:59:46.474Z,32.43
2022-08-07T10:02:39.684Z,33.42
2022-08-07T10:05:58.076Z,33.69
2022-08-07T10:08:36.631Z,33.32
2022-08-07T10:12:00.099Z,33.90
2022-08-07T10:14:23.155Z,34.04
2022-08-07T10:17:10.577Z,34.74
2022-08-07T10:19:53.199Z,35.16
2022-08-07T10:22:43.139Z,35.70
2022-08-07T10:25:23.609Z,36.13
2022-08-07T10:28:29.189Z,36.05
2022-08-07T10:31:14.986Z,36.33
2022-08-07T10:34:27.335Z,36.12
2022-08-07T10:37:05.598Z,32.57
2022-08-07T10:40:05.672Z,31.06
2022-08-07T10:42:46.351Z,31.76
2022-08-07T10:45:57.697Z,33.26
2022-08-07T10:48:39.457Z,32.97
2022-08-07T10:51:57.705Z,33.75
2022-08-07T10:54:18.728Z,34.45
2022-08-07T10:57:00.625Z,34.41
2022-08-07T10:59:59.000Z,34.41
2022-08-07T11:02:38.020Z,33.03
2022-08-07T11:05:48.909Z,34.26
2022-08-07T11:08:34.459Z,33.87
2022-08-07T11:11:12.682Z,34.90
2022-08-07T11:14:46.027Z,35.65
2022-08-07T11:17:13.146Z,35.34
2022-08-07T11:20:05.083Z,35.65
2022-08-07T11:22:45.946Z,35.10
2022-08-07T11:25:27.181Z,32.60
2022-08-07T11:28:27.954Z,32.77
2022-08-07T11:31:08.870Z,33.10
2022-08-07T11:34:06.496Z,34.79
2022-08-07T11:37:04.956Z,33.97
2022-08-07T11:39:59.013Z,34.64
2022-08-07T11:42:33.078Z,35.75
2022-08-07T11:45:20.671Z,36.24
2022-08-07T11:48:18.298Z,36.70
2022-08-07T11:50:57.656Z,37.06
2022-08-07T11:53:36.104Z,37.47
2022-08-07T11:56:35.650Z,37.95
2022-08-07T12:00:11.749Z,38.57
2022-08-07T12:03:03.848Z,38.79
2022-08-07T12:06:37.980Z,38.04
2022-08-07T12:09:23.380Z,38.16
2022-08-07T12:12:10.450Z,38.90
2022-08-07T12:14:56.198Z,39.23
2022-08-07T12:17:38.275Z,39.06
2022-08-07T12:20:20.772Z,39.26
2022-08-07T12:23:15.486Z,39.43
2022-08-07T12:26:05.311Z,39.43
2022-08-07T12:28:58.941Z,39.48
2022-08-07T12:32:01.924Z,39.58
2022-08-07T12:34:25.973Z,40.02
2022-08-07T12:36:56.394Z,40.26
2022-08-07T12:39:43.772Z,40.60
2022-08-07T12:42:15.921Z,40.97
2022-08-07T12:44:46.416Z,41.29
2022-08-07T12:47:43.944Z,41.43
2022-08-07T12:50:54.339Z,41.28
2022-08-07T12:54:37.017Z,41.20
2022-08-07T12:57:09.419Z,40.84
2022-08-07T12:59:54.278Z,39.74
2022-08-07T13:02:50.819Z,39.00
2022-08-07T13:06:02.709Z,39.63
2022-08-07T13:08:38.694Z,39.66
2022-08-07T13:11:31.342Z,40.11
2022-08-07T13:14:51.483Z,39.72
2022-08-07T13:17:40.043Z,38.95
2022-08-07T13:20:18.348Z,39.47
2022-08-07T13:22:53.411Z,39.94
2022-08-07T13:25:31.041Z,40.16
2022-08-07T13:28:11.272Z,40.73
2022-08-07T13:30:49.168Z,41.05
2022-08-07T13:34:33.384Z,41.18
2022-08-07T13:36:41.806Z,41.25
2022-08-07T13:39:28.606Z,41.21
2022-08-07T13:42:14.271Z,40.59
2022-08-07T13:45:11.522Z,40.88
2022-08-07T13:48:05.247Z,41.28
2022-08-07T13:50:34.507Z,41.53
2022-08-07T13:53:21.813Z,41.42
2022-08-07T13:55:54.550Z,41.39
2022-08-07T13:58:43.278Z,41.41
2022-08-07T14:01:24.830Z,41.53
2022-08-07T14:04:07.236Z,41.52
2022-08-07T14:06:39.080Z,41.07
2022-08-07T14:09:07.314Z,40.81
2022-08-07T14:11:53.693Z,40.33
2022-08-07T14:14:51.431Z,39.16
2022-08-07T14:17:51.617Z,39.30
2022-08-07T14:20:43.048Z,39.55
2022-08-07T14:23:31.596Z,39.37
2022-08-07T14:26:28.063Z,39.62
2022-08-07T14:29:05.873Z,39.58
2022-08-07T14:31:42.790Z,39.55
2022-08-07T14:34:12.121Z,39.68
2022-08-07T14:36:56.401Z,39.87
2022-08-07T14:40:16.725Z,39.73
2022-08-07T14:42:20.639Z,39.23
2022-08-07T14:44:53.671Z,39.52
2022-08-07T14:47:21.158Z,39.61
2022-08-07T14:49:56.836Z,39.69
2022-08-07T14:52:28.816Z,39.74
2022-08-07T14:54:58.498Z,39.62
2022-08-07T14:57:54.397Z,39.66
2022-08-07T15:00:20.866Z,39.55
2022-08-07T15:02:59.138Z,39.36
2022-08-07T15:05:30.173Z,39.10
2022-08-07T15:07:59.800Z,38.89
2022-08-07T15:10:30.000Z,38.99
2022-08-07T15:16:02.334Z,39.05
2022-08-07T15:18:40.209Z,38.69
2022-08-07T15:25:15.779Z,38.19
2022-08-07T15:27:04.521Z,38.25
2022-08-07T15:30:16.532Z,38.33
2022-08-07T15:32:51.149Z,38.34
2022-08-07T15:36:04.886Z,38.04
2022-08-07T15:38:30.000Z,37.45
2022-08-07T15:41:23.398Z,37.59
2022-08-07T15:44:08.123Z,37.56
2022-08-07T15:46:51.769Z,37.66
2022-08-07T15:52:13.657Z,37.34
2022-08-07T15:54:44.362Z,37.14
2022-08-07T15:57:39.482Z,37.15
2022-08-07T16:00:06.845Z,37.13
2022-08-07T16:02:47.019Z,36.68
2022-08-07T16:05:20.530Z,36.56
2022-08-07T16:08:30.420Z,36.35
2022-08-07T16:10:47.231Z,36.27
2022-08-07T16:13:58.952Z,36.14
2022-08-07T16:16:57.096Z,35.95
2022-08-07T16:19:59.147Z,35.69
2022-08-07T16:22:33.957Z,35.60
2022-08-07T16:25:52.541Z,35.42
2022-08-07T16:30:08.294Z,35.12
2022-08-07T16:31:57.702Z,34.96
2022-08-07T16:34:39.574Z,34.85
2022-08-07T16:38:07.272Z,34.75
2022-08-07T16:40:30.770Z,34.62
2022-08-07T16:43:16.988Z,34.37
2022-08-07T16:46:41.047Z,33.95
2022-08-07T16:50:27.247Z,33.78
2022-08-07T16:52:51.174Z,33.69
2022-08-07T16:55:28.203Z,33.60
2022-08-07T16:58:54.334Z,33.43
2022-08-07T17:44:15.636Z,30.90
2022-08-07T17:47:03.097Z,30.91
2022-08-07T17:49:52.199Z,30.85
2022-08-07T17:52:36.854Z,30.74
2022-08-07T17:55:14.208Z,30.58
2022-08-07T17:58:07.118Z,30.28
2022-08-07T18:00:48.810Z,30.06
2022-08-07T18:03:25.537Z,29.81
2022-08-07T18:06:06.367Z,29.58
2022-08-07T18:09:01.220Z,29.42
2022-08-07T18:12:16.739Z,29.12
2022-08-07T18:14:46.447Z,29.03
2022-08-07T18:18:46.223Z,28.87
2022-08-07T18:21:07.459Z,28.70
2022-08-07T18:23:46.686Z,28.54
2022-08-07T18:26:20.612Z,28.46
2022-08-07T18:30:07.621Z,28.47
2022-08-07T18:32:29.908Z,28.33
2022-08-07T18:35:15.938Z,28.22
2022-08-07T18:38:58.643Z,28.15
2022-08-07T18:41:08.088Z,27.99
2022-08-07T18:43:43.209Z,27.92
2022-08-07T18:47:08.853Z,27.82
2022-08-07T18:50:32.922Z,27.77
2022-08-07T18:52:57.889Z,27.66
2022-08-07T18:55:41.913Z,27.58
2022-08-07T18:58:33.728Z,27.46
2022-08-07T19:02:17.151Z,27.36
2022-08-07T19:04:37.921Z,27.22
2022-08-07T19:08:05.263Z,27.08
2022-08-07T19:10:51.849Z,27.09
2022-08-07T19:13:22.282Z,27.05
2022-08-07T19:17:00.376Z,26.95
2022-08-07T19:19:31.971Z,26.76
2022-08-07T19:22:11.215Z,26.47
2022-08-07T19:24:44.596Z,26.50
2022-08-07T19:28:56.736Z,26.27
2022-08-07T19:30:55.743Z,26.28
2022-08-07T19:33:08.305Z,26.13
2022-08-07T19:35:42.076Z,25.99
2022-08-07T19:38:17.013Z,26.02
2022-08-07T19:40:50.427Z,25.95
2022-08-07T19:43:50.277Z,25.96
2022-08-07T19:46:13.744Z,25.75
2022-08-07T19:48:53.492Z,25.87
2022-08-07T19:51:50.873Z,25.79
2022-08-07T19:54:35.360Z,25.65
2022-08-07T19:58:01.693Z,25.55
2022-08-07T19:59:53.351Z,25.47
2022-08-07T20:02:41.102Z,25.40
2022-08-07T20:05:28.130Z,25.35
2022-08-07T20:08:02.269Z,25.33
2022-08-07T20:10:36.312Z,25.29
2022-08-07T20:13:26.947Z,25.26
2022-08-07T20:16:01.078Z,25.12
2022-08-07T20:18:34.506Z,25.07
2022-08-07T20:21:14.547Z,25.04
2022-08-07T20:24:04.113Z,24.95
2022-08-07T20:26:44.892Z,24.81
2022-08-07T20:29:49.158Z,24.81
2022-08-07T20:32:22.290Z,24.76
2022-08-07T20:34:55.067Z,24.68
2022-08-07T20:37:25.155Z,24.60
2022-08-07T20:40:02.693Z,24.40
2022-08-07T20:42:32.300Z,24.49
2022-08-07T20:45:01.366Z,24.42
2022-08-07T20:47:56.061Z,24.35
2022-08-07T20:50:21.069Z,24.30
2022-08-07T20:52:51.100Z,24.18
2022-08-07T20:55:23.852Z,24.23
2022-08-07T20:58:03.865Z,24.09
2022-08-07T21:00:46.050Z,24.08
2022-08-07T21:03:19.268Z,24.10
2022-08-07T21:05:56.868Z,23.98
2022-08-07T21:08:37.653Z,23.97
2022-08-07T21:11:12.023Z,23.88
2022-08-07T21:14:16.240Z,23.80
2022-08-07T21:18:00.575Z,23.71
2022-08-07T21:19:51.616Z,23.63
2022-08-07T21:22:28.898Z,23.52
2022-08-07T21:25:12.263Z,23.45
2022-08-07T21:28:01.789Z,23.42
2022-08-07T21:30:47.048Z,23.35
2022-08-07T21:33:22.576Z,23.39
2022-08-07T21:36:32.024Z,23.32
2022-08-07T21:39:45.935Z,23.19
2022-08-07T21:42:42.688Z,23.16
2022-08-07T21:46:11.145Z,23.17
2022-08-07T21:48:56.648Z,23.11
2022-08-07T21:51:51.080Z,23.08
2022-08-07T21:54:24.315Z,23.04
2022-08-07T21:56:54.914Z,22.98
2022-08-07T22:00:04.948Z,22.91
2022-08-07T22:02:56.743Z,22.86
2022-08-07T22:05:44.580Z,22.83
2022-08-07T22:08:14.428Z,22.79
2022-08-07T22:10:49.750Z,22.77
2022-08-07T22:13:17.236Z,22.66
2022-08-07T22:16:42.992Z,22.52
2022-08-07T22:19:01.025Z,22.33
2022-08-07T22:22:05.306Z,22.27
2022-08-07T22:24:41.032Z,22.14
2022-08-07T22:27:18.659Z,22.01
2022-08-07T22:29:55.145Z,21.92
2022-08-07T22:32:42.260Z,21.82
2022-08-07T22:35:11.563Z,21.73
2022-08-07T22:38:03.001Z,21.67
2022-08-07T22:40:56.915Z,21.55
2022-08-07T22:43:33.926Z,21.38
2022-08-07T22:47:02.175Z,21.36
2022-08-07T22:49:39.130Z,21.20
2022-08-07T22:52:11.698Z,21.13
2022-08-07T22:55:17.443Z,21.06
2022-08-07T22:58:10.088Z,20.87
2022-08-07T23:00:51.703Z,20.78
2022-08-07T23:03:21.278Z,20.68
2022-08-07T23:06:27.605Z,20.62
2022-08-07T23:10:06.297Z,20.57
2022-08-07T23:12:34.012Z,20.40
2022-08-07T23:16:06.869Z,20.26
2022-08-07T23:19:16.818Z,20.15
2022-08-07T23:22:11.268Z,20.10
2022-08-07T23:25:16.194Z,20.01
2022-08-07T23:28:21.155Z,19.96
2022-08-07T23:31:11.318Z,19.88
2022-08-07T23:34:34.063Z,19.81
2022-08-07T23:37:29.388Z,19.67
2022-08-07T23:40:22.920Z,19.55
2022-08-07T23:43:16.716Z,19.54
2022-08-07T23:46:10.509Z,19.53
2022-08-07T23:49:00.310Z,19.47
2022-08-07T23:52:59.977Z,19.47
2022-08-07T23:54:44.244Z,19.44
2022-08-07T23:57:30.668Z,19.46
